Time;durP1;ratioP1;P1;durP2;ratioP2;P2;SDS_P1;SDS_P2;PMS_P1;PMS_P2;Temp;Humidity;BMP_temperature;BMP_pressure;BME280_temperature;BME280_humidity;BME280_pressure;Samples;Min_cycle;Max_cycle;Signal;HPM_P1;HPM_P2
2023/12/27 00:01:32;;;;;;;3.23;0.90;;;;;;;-141.84;79.24;19009.09;5052247;28;20620;-59
2023/12/27 00:04:00;;;;;;;2.07;0.87;;;;;;;-141.84;77.00;18789.66;5047030;28;20206;-57
2023/12/27 00:06:29;;;;;;;2.03;0.80;;;;;;;-141.84;77.31;18862.81;5051348;28;20229;-58
2023/12/27 00:08:58;;;;;;;4.10;1.07;;;;;;;-141.84;78.59;18907.50;5051116;28;20213;-56
2023/12/27 00:11:28;;;;;;;1.90;1.00;;;;;;;-141.84;78.19;18905.47;5050022;28;20221;-54
2023/12/27 00:13:57;;;;;;;1.23;0.70;;;;;;;-141.84;78.80;18944.09;5050909;28;20316;-55
2023/12/27 00:16:25;;;;;;;1.97;0.80;;;;;;;-141.84;79.35;19043.66;5051117;28;20232;-55
2023/12/27 00:18:54;;;;;;;2.50;0.80;;;;;;;-141.84;79.68;19049.75;5050776;28;20223;-56
2023/12/27 00:21:23;;;;;;;1.87;0.90;;;;;;;-141.84;81.57;19364.72;5050526;28;20229;-58
2023/12/27 00:23:51;;;;;;;1.10;0.90;;;;;;;-141.84;81.31;19439.91;5050623;28;20784;-53
2023/12/27 00:26:20;;;;;;;2.17;1.30;;;;;;;-141.84;80.89;19291.56;5050665;28;20279;-56
2023/12/27 00:28:50;;;;;;;2.87;0.90;;;;;;;-141.84;79.78;19061.94;5050478;28;20243;-55
2023/12/27 00:31:18;;;;;;;2.70;0.93;;;;;;;-141.84;80.57;19244.81;5050893;28;20280;-57
2023/12/27 00:33:47;;;;;;;2.33;0.90;;;;;;;-141.84;80.88;19189.97;5048895;28;20229;-56
2023/12/27 00:36:20;;;;;;;4.93;1.57;;;;;;;-141.84;81.68;19441.94;5048837;28;20225;-56
2023/12/27 00:38:49;;;;;;;1.77;0.70;;;;;;;-141.84;83.06;19913.44;5050383;28;20225;-57
2023/12/27 00:41:18;;;;;;;2.33;1.27;;;;;;;-141.84;82.99;20013.00;5050366;28;20308;-56
2023/12/27 00:43:46;;;;;;;1.57;0.80;;;;;;;-141.84;81.72;19407.38;5048682;28;20831;-53
2023/12/27 00:46:16;;;;;;;2.50;0.93;;;;;;;-141.84;82.97;19813.84;5049530;28;20419;-54
2023/12/27 00:48:45;;;;;;;3.47;1.20;;;;;;;-141.84;83.89;20319.94;5050126;28;20252;-55
2023/12/27 00:51:20;;;;;;;1.97;0.87;;;;;;;-141.84;84.27;20665.50;5049072;28;20260;-57
2023/12/27 00:53:50;;;;;;;1.37;0.90;;;;;;;-141.84;85.08;21629.16;5049279;28;20700;-56
2023/12/27 00:56:18;;;;;;;2.80;1.10;;;;;;;-141.84;84.35;20826.09;5049409;28;20248;-55
2023/12/27 00:58:47;;;;;;;3.10;1.10;;;;;;;-141.84;84.69;21007.00;5049943;28;20252;-54
2023/12/27 01:01:17;;;;;;;4.07;1.03;;;;;;;-141.84;83.84;20362.63;5050167;28;20193;-55
2023/12/27 01:03:45;;;;;;;1.93;0.80;;;;;;;-141.84;84.27;20586.22;5049493;28;20275;-55
2023/12/27 01:06:14;;;;;;;3.30;1.00;;;;;;;-141.84;84.17;20710.22;5049811;28;20255;-56
2023/12/27 01:08:43;;;;;;;1.33;0.80;;;;;;;-141.84;83.74;20161.38;5049506;28;20233;-57
2023/12/27 01:11:11;;;;;;;2.20;1.17;;;;;;;-141.84;82.14;19586.22;5041668;28;20221;-54
2023/12/27 01:13:43;;;;;;;3.50;1.13;;;;;;;-141.84;81.52;19265.13;5049199;28;20194;-55
2023/12/27 01:16:14;;;;;;;3.03;0.90;;;;;;;-141.84;82.42;19511.03;5050004;28;20273;-56
2023/12/27 01:18:44;;;;;;;3.33;1.00;;;;;;;-141.84;80.26;18980.66;5049442;28;20941;-56
2023/12/27 01:21:13;;;;;;;3.47;1.10;;;;;;;-141.84;81.27;19135.09;5049728;28;20228;-57
2023/12/27 01:23:42;;;;;;;1.27;0.80;;;;;;;-141.84;80.16;19013.16;5049455;28;20236;-56
2023/12/27 01:26:11;;;;;;;4.63;1.10;;;;;;;-141.84;79.16;18858.75;5049403;28;20271;-56
2023/12/27 01:28:40;;;;;;;4.10;1.33;;;;;;;-141.84;79.63;18879.06;5049514;28;20197;-56
2023/12/27 01:31:10;;;;;;;3.23;1.20;;;;;;;-141.84;80.05;18960.34;5049771;28;20237;-56
2023/12/27 01:33:40;;;;;;;2.50;0.90;;;;;;;-141.84;82.00;19171.66;5049813;28;20627;-53
2023/12/27 01:36:11;;;;;;;5.13;1.13;;;;;;;-141.84;83.13;19657.34;5049250;28;20287;-56
2023/12/27 01:38:40;;;;;;;2.27;0.80;;;;;;;-141.84;83.96;20086.19;5049299;28;20217;-56
2023/12/27 01:41:08;;;;;;;3.77;1.13;;;;;;;-141.84;85.70;21631.19;5045530;28;20308;-57
2023/12/27 01:43:37;;;;;;;2.17;1.00;;;;;;;-141.84;87.25;24745.44;5040945;28;20527;-56
2023/12/27 01:46:07;;;;;;;1.77;1.17;;;;;;;-141.84;88.35;28053.59;5049958;28;20661;-57
2023/12/27 01:48:36;;;;;;;3.07;1.20;;;;;;;-141.84;89.56;33534.00;5049521;28;20239;-55
2023/12/27 01:51:06;;;;;;;2.83;1.30;;;;;;;-141.84;90.55;40182.31;5049154;28;20220;-55
2023/12/27 01:53:36;;;;;;;4.57;1.43;;;;;;;-141.84;91.78;47060.84;5049700;28;20267;-53
2023/12/27 01:56:05;;;;;;;3.33;1.33;;;;;;;-141.84;93.28;54927.34;5049236;28;20316;-54
2023/12/27 01:58:35;;;;;;;3.53;1.37;;;;;;;-141.84;93.30;56239.94;5041154;28;20653;-54
2023/12/27 02:01:04;;;;;;;4.67;1.10;;;;;;;-141.84;93.47;57027.72;5049305;28;20221;-53
2023/12/27 02:03:32;;;;;;;2.37;1.10;;;;;;;-141.84;94.36;60706.06;5051768;28;20235;-52
2023/12/27 02:06:02;;;;;;;4.53;1.43;;;;;;;-141.84;95.09;64914.06;5053350;28;20224;-54
2023/12/27 02:08:31;;;;;;;3.17;1.00;;;;;;;-141.84;96.08;68863.09;5053058;28;20687;-50
2023/12/27 02:11:01;;;;;;;3.57;1.13;;;;;;;-141.84;96.80;71761.53;5053227;28;20306;-56
2023/12/27 02:13:29;;;;;;;3.50;0.93;;;;;;;-141.84;97.09;73607.09;5053237;28;20235;-54
2023/12/27 02:15:59;;;;;;;2.37;0.90;;;;;;;-141.84;97.27;74925.88;5053711;28;20197;-53
2023/12/27 02:18:29;;;;;;;1.67;1.00;;;;;;;-141.84;97.55;75189.69;5052779;28;20236;-55
2023/12/27 02:20:58;;;;;;;1.80;0.83;;;;;;;-141.84;98.93;79941.19;5053175;28;20225;-54
2023/12/27 02:23:30;;;;;;;1.90;0.83;;;;;;;-141.84;100.00;84698.34;5052998;28;20232;-56
2023/12/27 02:26:01;;;;;;;4.80;0.80;;;;;;;-141.84;100.00;86549.84;5053121;28;20241;-54
2023/12/27 02:28:29;;;;;;;4.60;1.30;;;;;;;-141.84;100.00;89990.66;5053071;28;20197;-58
2023/12/27 02:30:58;;;;;;;4.40;1.10;;;;;;;-141.84;100.00;92639.44;5053282;28;20200;-57
2023/12/27 02:33:27;;;;;;;3.87;1.40;;;;;;;-141.84;100.00;94759.69;5052558;28;20650;-56
2023/12/27 02:35:55;;;;;;;3.57;1.50;;;;;;;-141.84;100.00;95820.25;5052837;28;20299;-55
2023/12/27 02:38:24;;;;;;;3.43;1.30;;;;;;;-141.84;100.00;95820.25;5052349;28;20240;-58
2023/12/27 02:40:53;;;;;;;3.37;1.57;;;;;;;-141.84;100.00;87872.91;5052409;28;20237;-57
2023/12/27 02:43:23;;;;;;;2.43;1.33;;;;;;;-141.84;99.86;84698.34;5045766;28;20202;-56
2023/12/27 02:45:51;;;;;;;2.10;1.43;;;;;;;-141.84;100.00;86549.84;5051660;28;20705;-57
2023/12/27 02:48:20;;;;;;;2.80;1.50;;;;;;;-141.84;100.00;89461.13;5049739;28;20594;-57
2023/12/27 02:50:49;;;;;;;2.50;1.97;;;;;;;-141.84;100.00;89990.66;5052805;28;20232;-52
2023/12/27 02:53:18;;;;;;;5.87;1.80;;;;;;;-141.84;100.00;89725.88;5048888;28;20244;-55
2023/12/27 02:55:46;;;;;;;2.50;1.93;;;;;;;-141.84;100.00;93169.38;5052336;28;20197;-55
2023/12/27 02:58:15;;;;;;;3.37;1.90;;;;;;;-141.84;100.00;96615.84;5052734;28;20247;-54
2023/12/27 03:00:47;;;;;;;5.70;2.37;;;;;;;-141.84;100.00;100065.22;5052208;28;20227;-53
2023/12/27 03:03:16;;;;;;;2.93;2.00;;;;;;;-141.84;100.00;100065.22;5051337;28;20307;-56
2023/12/27 03:05:47;;;;;;;4.47;1.70;;;;;;;-141.84;100.00;99799.78;5051661;28;20233;-56
2023/12/27 03:08:16;;;;;;;1.73;1.40;;;;;;;-141.84;100.00;97676.88;5051712;28;20227;-54
2023/12/27 03:10:45;;;;;;;2.30;1.43;;;;;;;-141.84;100.00;96085.44;5051990;28;20224;-52
2023/12/27 03:13:13;;;;;;;2.00;1.40;;;;;;;-141.84;100.00;92639.44;5044571;28;20201;-55
2023/12/27 03:15:43;;;;;;;1.70;1.17;;;;;;;-141.84;100.00;91579.72;5051311;28;20775;-55
2023/12/27 03:18:12;;;;;;;2.33;1.30;;;;;;;-141.84;100.00;93964.47;5051739;28;20225;-55
2023/12/27 03:20:40;;;;;;;4.17;1.20;;;;;;;-141.84;100.00;96881.06;5051767;28;20255;-54
2023/12/27 03:23:09;;;;;;;3.97;1.50;;;;;;;-141.84;100.00;99003.56;5052348;28;20623;-56
2023/12/27 03:25:38;;;;;;;3.60;1.33;;;;;;;-141.84;100.00;100596.16;5051804;28;20229;-55
2023/12/27 03:28:06;;;;;;;3.73;1.43;;;;;;;-141.84;100.00;99799.78;5052119;28;20660;-55
2023/12/27 03:30:35;;;;;;;3.13;1.60;;;;;;;-141.84;100.00;98738.19;5051613;28;20639;-55
2023/12/27 03:33:05;;;;;;;1.93;1.20;;;;;;;-141.84;100.00;96615.84;5051644;28;20224;-56
2023/12/27 03:35:35;;;;;;;2.60;1.90;;;;;;;-141.84;100.00;92639.44;5051266;28;20224;-57
2023/12/27 03:38:04;;;;;;;3.17;1.87;;;;;;;-141.84;100.00;87343.63;5051553;28;20252;-53
2023/12/27 03:40:33;;;;;;;4.27;1.67;;;;;;;-141.84;100.00;90785.09;5051120;28;20629;-54
2023/12/27 03:43:01;;;;;;;3.93;2.00;;;;;;;-141.84;100.00;94759.69;5050807;28;20284;-57
2023/12/27 03:45:30;;;;;;;2.77;1.67;;;;;;;-141.84;100.00;97411.59;5050845;28;20319;-55
2023/12/27 03:47:58;;;;;;;2.70;1.93;;;;;;;-141.84;100.00;99534.38;5051169;28;20223;-54
2023/12/27 03:50:29;;;;;;;3.90;2.10;;;;;;;-141.84;100.00;102455.00;5050894;28;20223;-53
2023/12/27 03:52:58;;;;;;;1.87;1.70;;;;;;;-141.84;100.00;104846.16;5051491;28;20255;-55
2023/12/27 03:55:27;;;;;;;5.60;1.90;;;;;;;-141.84;100.00;103517.56;5051322;28;20287;-53
2023/12/27 03:57:58;;;;;;;1.80;1.60;;;;;;;-141.84;100.00;102455.00;5051377;28;20232;-48
2023/12/27 04:00:27;;;;;;;3.77;2.80;;;;;;;-141.84;100.00;103783.25;5051171;28;20228;-51
2023/12/27 04:02:55;;;;;;;3.90;1.60;;;;;;;-141.84;100.00;104314.66;5051746;28;20235;-49
2023/12/27 04:05:24;;;;;;;4.43;1.43;;;;;;;-141.84;100.00;99003.56;5051482;28;20231;-52
2023/12/27 04:07:54;;;;;;;3.90;1.70;;;;;;;-141.84;100.00;89725.88;5043231;28;20232;-54
2023/12/27 04:10:25;;;;;;;2.47;1.40;;;;;;;-141.84;100.00;88137.56;5051459;28;20192;-55
2023/12/27 04:12:54;;;;;;;2.87;1.37;;;;;;;-141.84;98.21;82054.78;5051725;28;20220;-56
2023/12/27 04:15:22;;;;;;;4.00;1.43;;;;;;;-141.84;96.83;75717.34;5051486;28;20316;-53
2023/12/27 04:17:51;;;;;;;4.73;1.53;;;;;;;-141.84;97.31;76508.97;5051850;28;20243;-52
2023/12/27 04:20:20;;;;;;;3.43;1.53;;;;;;;-141.84;98.68;80733.66;5051069;28;20328;-56
2023/12/27 04:22:48;;;;;;;4.27;1.50;;;;;;;-141.84;99.53;83376.34;5050849;28;20314;-51
2023/12/27 04:25:18;;;;;;;2.90;1.30;;;;;;;-141.84;100.00;88931.63;5031918;28;20647;-51
2023/12/27 04:27:47;;;;;;;3.70;1.60;;;;;;;-141.84;100.00;94229.53;5050442;28;20231;-49
2023/12/27 04:30:16;;;;;;;4.07;2.10;;;;;;;-141.84;100.00;98207.50;5051109;28;20242;-52
2023/12/27 04:32:44;;;;;;;4.73;2.07;;;;;;;-141.84;100.00;100596.16;5051152;28;20233;-52
2023/12/27 04:35:13;;;;;;;3.70;1.97;;;;;;;-141.84;100.00;95820.25;5041847;28;20238;-56
2023/12/27 04:37:42;;;;;;;3.23;2.00;;;;;;;-141.84;99.17;84962.78;5050874;28;20227;-53
2023/12/27 04:40:11;;;;;;;4.53;2.30;;;;;;;-141.84;98.24;80469.50;5050410;28;20201;-52
2023/12/27 04:42:41;;;;;;;4.53;2.07;;;;;;;-141.84;99.93;84433.91;5048204;28;20225;-56
2023/12/27 04:45:10;;;;;;;3.17;1.57;;;;;;;-141.84;100.00;88931.63;5045828;28;20225;-55
2023/12/27 04:47:39;;;;;;;2.83;1.50;;;;;;;-141.84;100.00;90785.09;5048725;28;20291;-55
2023/12/27 04:50:09;;;;;;;2.87;1.57;;;;;;;-141.84;100.00;89461.13;5049718;28;20278;-54
2023/12/27 04:52:37;;;;;;;2.70;1.60;;;;;;;-141.84;100.00;88137.56;5044432;28;20284;-54
2023/12/27 04:55:07;;;;;;;5.97;3.50;;;;;;;-141.84;100.00;88137.56;5050499;28;20613;-53
2023/12/27 04:57:35;;;;;;;5.90;3.70;;;;;;;-141.84;100.00;86549.84;5050007;28;20722;-53
2023/12/27 05:00:07;;;;;;;3.90;2.70;;;;;;;-141.84;100.00;87343.63;5049982;28;20312;-53
2023/12/27 05:02:36;;;;;;;2.70;2.03;;;;;;;-141.84;99.93;86020.75;5042111;28;20290;-53
2023/12/27 05:05:05;;;;;;;3.63;1.97;;;;;;;-141.84;98.73;82054.78;5047632;28;20252;-54
2023/12/27 05:07:33;;;;;;;4.00;1.50;;;;;;;-141.84;98.98;82583.34;5049927;28;20211;-55
2023/12/27 05:10:02;;;;;;;2.67;1.60;;;;;;;-141.84;99.84;84433.91;5050194;28;20192;-55
2023/12/27 05:12:30;;;;;;;6.43;1.30;;;;;;;-141.84;100.00;87079.03;5049897;28;20227;-55
2023/12/27 05:14:59;;;;;;;5.73;1.80;;;;;;;-141.84;100.00;90520.28;5049828;28;20580;-56
2023/12/27 05:17:29;;;;;;;5.67;2.23;;;;;;;-141.84;100.00;91579.72;5049555;28;20224;-54
2023/12/27 05:19:57;;;;;;;4.43;2.10;;;;;;;-141.84;100.00;92904.41;5050120;28;20232;-56
2023/12/27 05:22:27;;;;;;;7.00;2.47;;;;;;;-141.84;100.00;92109.53;5049565;28;20339;-57
2023/12/27 05:24:56;;;;;;;4.40;2.53;;;;;;;-141.84;100.00;88666.94;5049058;28;20241;-54
2023/12/27 05:27:24;;;;;;;5.43;3.97;;;;;;;-141.84;100.00;89990.66;5049223;28;20311;-55
2023/12/27 05:29:53;;;;;;;4.10;2.37;;;;;;;-141.84;100.00;92904.41;5041116;28;20244;-57
2023/12/27 05:32:21;;;;;;;4.80;2.10;;;;;;;-141.84;100.00;94759.69;5050983;28;20307;-52
2023/12/27 05:34:53;;;;;;;7.63;2.00;;;;;;;-141.84;100.00;98472.84;5051196;28;20609;-56
2023/12/27 05:37:21;;;;;;;4.83;2.90;;;;;;;-141.84;100.00;101392.69;5050767;28;20299;-51
2023/12/27 05:39:50;;;;;;;5.10;3.00;;;;;;;-141.84;100.00;101923.81;5049233;28;20311;-54
2023/12/27 05:42:19;;;;;;;4.73;1.90;;;;;;;-141.84;100.00;100861.66;5049129;28;20229;-56
2023/12/27 05:44:47;;;;;;;3.20;1.70;;;;;;;-141.84;100.00;94759.69;5042884;28;20224;-56
2023/12/27 05:47:16;;;;;;;5.63;1.60;;;;;;;-141.84;100.00;88666.94;5045810;28;20280;-53
2023/12/27 05:49:44;;;;;;;4.57;2.20;;;;;;;-141.84;100.00;86814.44;5049071;28;20280;-54
2023/12/27 05:52:14;;;;;;;5.93;3.53;;;;;;;-141.84;99.68;85227.25;5043633;28;20258;-51
2023/12/27 05:54:43;;;;;;;5.93;4.00;;;;;;;-141.84;99.44;84698.34;5049020;28;20259;-54
2023/12/27 05:57:12;;;;;;;5.77;2.87;;;;;;;-141.84;98.78;82583.34;5049094;28;20232;-53
2023/12/27 05:59:41;;;;;;;6.23;2.47;;;;;;;-141.84;98.73;81262.06;5049189;28;20213;-56
2023/12/27 06:02:09;;;;;;;5.90;2.80;;;;;;;-141.84;99.85;85227.25;5048957;28;20320;-54
2023/12/27 06:04:38;;;;;;;6.90;3.00;;;;;;;-141.84;100.00;88402.22;5041307;28;20655;-55
2023/12/27 06:07:06;;;;;;;3.10;2.80;;;;;;;-141.84;100.00;92374.47;5049789;28;20274;-55
2023/12/27 06:09:36;;;;;;;5.03;3.03;;;;;;;-141.84;100.00;97676.88;5049100;28;20997;-55
2023/12/27 06:12:07;;;;;;;3.53;2.90;;;;;;;-141.84;100.00;102455.00;5049306;28;20213;-55
2023/12/27 06:14:35;;;;;;;2.87;2.40;;;;;;;-141.84;100.00;104846.16;5045033;28;20224;-52
2023/12/27 06:17:04;;;;;;;3.63;1.97;;;;;;;-141.84;100.00;106441.06;5048974;28;20275;-50
2023/12/27 06:19:33;;;;;;;5.63;2.63;;;;;;;-141.84;100.00;104048.94;5049484;28;20221;-49
2023/12/27 06:22:01;;;;;;;6.20;2.53;;;;;;;-141.84;100.00;105111.94;5049592;28;20687;-53
2023/12/27 06:24:31;;;;;;;5.77;2.30;;;;;;;-141.84;100.00;108302.56;5049233;28;20252;-54
2023/12/27 06:27:01;;;;;;;3.30;1.73;;;;;;;-141.84;100.00;110431.03;5049199;28;20221;-50
2023/12/27 06:29:29;;;;;;;6.23;2.17;;;;;;;-141.84;100.00;112294.34;5048921;28;20232;-51
2023/12/27 06:31:58;;;;;;;5.67;2.07;;;;;;;-141.84;100.00;111495.69;5046063;28;20237;-51
2023/12/27 06:34:26;;;;;;;3.73;1.93;;;;;;;-141.84;100.00;109632.72;5049557;28;20231;-54
2023/12/27 06:36:55;;;;;;;5.63;1.97;;;;;;;-141.84;100.00;109100.59;5049221;28;20221;-53
2023/12/27 06:39:23;;;;;;;3.17;1.70;;;;;;;-141.84;100.00;108036.56;5049184;28;20222;-54
2023/12/27 06:41:52;;;;;;;4.03;1.90;;;;;;;-141.84;100.00;107238.72;5048996;28;20286;-52
2023/12/27 06:44:22;;;;;;;4.47;2.60;;;;;;;-141.84;100.00;109100.59;5046413;28;20311;-55
2023/12/27 06:46:50;;;;;;;7.07;2.40;;;;;;;-141.84;100.00;111229.50;5049146;28;20254;-56
2023/12/27 06:49:19;;;;;;;3.43;2.20;;;;;;;-141.84;100.00;113359.50;5050023;28;20202;-53
2023/12/27 06:51:47;;;;;;;4.80;2.10;;;;;;;-141.84;100.00;114691.31;5052183;28;20221;-54
2023/12/27 06:54:16;;;;;;;6.33;2.00;;;;;;;-141.84;100.00;115757.06;5052327;28;20315;-53
2023/12/27 06:56:44;;;;;;;3.10;2.20;;;;;;;-141.84;100.00;116823.13;5051937;28;20240;-54
2023/12/27 06:59:14;;;;;;;4.07;2.20;;;;;;;-141.84;100.00;117089.69;5051760;28;20232;-52
2023/12/27 07:01:44;;;;;;;7.33;2.40;;;;;;;-141.84;100.00;117089.69;5050858;28;20241;-56
2023/12/27 07:04:12;;;;;;;3.97;2.23;;;;;;;-141.84;100.00;115757.06;5053121;28;20193;-55
2023/12/27 07:06:41;;;;;;;4.40;2.13;;;;;;;-141.84;100.00;111229.50;5052105;28;20229;-56
2023/12/27 07:09:09;;;;;;;5.33;2.43;;;;;;;-141.84;100.00;106175.19;5052008;28;20699;-54
2023/12/27 07:11:38;;;;;;;5.00;2.53;;;;;;;-141.84;100.00;101392.69;5051923;28;20391;-56
2023/12/27 07:14:07;;;;;;;5.37;2.10;;;;;;;-141.84;100.00;97411.59;5051601;28;20234;-52
2023/12/27 07:16:35;;;;;;;5.37;2.13;;;;;;;-141.84;100.00;93169.38;5051782;28;20635;-56
2023/12/27 07:19:05;;;;;;;2.93;1.90;;;;;;;-141.84;100.00;95024.81;5052341;28;20290;-54
2023/12/27 07:21:34;;;;;;;4.27;2.40;;;;;;;-141.84;100.00;100065.22;5045318;28;20643;-51
2023/12/27 07:24:03;;;;;;;5.07;2.23;;;;;;;-141.84;100.00;104846.16;5051019;28;20225;-56
2023/12/27 07:26:31;;;;;;;6.83;2.47;;;;;;;-141.84;100.00;106441.06;5051553;28;20250;-56
2023/12/27 07:29:00;;;;;;;5.77;2.27;;;;;;;-141.84;100.00;107238.72;5051763;28;20413;-56
2023/12/27 07:31:28;;;;;;;4.13;2.33;;;;;;;-141.84;100.00;101127.16;5052493;28;20287;-57
2023/12/27 07:33:57;;;;;;;4.27;1.87;;;;;;;-141.84;100.00;94229.53;5051414;28;20222;-57
2023/12/27 07:36:27;;;;;;;4.10;2.20;;;;;;;-141.84;100.00;93169.38;5048938;28;20221;-57
2023/12/27 07:38:55;;;;;;;3.60;1.93;;;;;;;-141.84;100.00;93699.44;5046632;28;20229;-56
2023/12/27 07:41:24;;;;;;;3.80;1.90;;;;;;;-141.84;100.00;96350.63;5044855;28;20278;-59
2023/12/27 07:43:53;;;;;;;5.57;2.30;;;;;;;-141.84;100.00;98738.19;5049091;28;20629;-59
2023/12/27 07:46:21;;;;;;;4.93;2.27;;;;;;;-141.84;100.00;101127.16;5050151;28;20280;-55
2023/12/27 07:48:50;;;;;;;3.03;2.43;;;;;;;-141.84;100.00;103517.56;5044906;28;20300;-55
2023/12/27 07:51:19;;;;;;;5.80;2.40;;;;;;;-141.84;100.00;105377.72;5051211;28;20240;-59
2023/12/27 07:53:50;;;;;;;4.27;2.40;;;;;;;-141.84;100.00;107504.66;5049981;28;20220;-51
2023/12/27 07:56:19;;;;;;;3.10;2.03;;;;;;;-141.84;100.00;108568.56;5049625;28;20246;-53
2023/12/27 07:58:48;;;;;;;5.50;2.13;;;;;;;-141.84;100.00;109898.81;5049929;28;20228;-55
2023/12/27 08:01:17;;;;;;;7.53;2.33;;;;;;;-141.84;100.00;110164.91;5047940;28;20279;-51
2023/12/27 08:03:52;;;;;;;5.93;2.10;;;;;;;-141.84;100.00;110431.03;5050609;28;20274;-56
2023/12/27 08:06:21;;;;;;;3.97;2.17;;;;;;;-141.84;100.00;109898.81;5050331;28;20233;-54
2023/12/27 08:08:51;;;;;;;4.83;2.33;;;;;;;-141.84;100.00;110164.91;5050489;28;20319;-56
2023/12/27 08:11:20;;;;;;;6.30;2.60;;;;;;;-141.84;100.00;109632.72;5050779;28;20264;-56
2023/12/27 08:13:48;;;;;;;4.30;2.33;;;;;;;-141.84;100.00;105377.72;5050237;28;20479;-54
2023/12/27 08:16:17;;;;;;;7.77;2.70;;;;;;;-141.84;100.00;103783.25;5051364;28;20283;-56
2023/12/27 08:18:46;;;;;;;4.27;2.37;;;;;;;-141.84;100.00;102986.25;5050333;28;20654;-55
2023/12/27 08:21:15;;;;;;;6.90;2.67;;;;;;;-141.84;100.00;104048.94;5048701;28;20311;-57
2023/12/27 08:23:43;;;;;;;4.57;2.47;;;;;;;-141.84;100.00;102455.00;5044282;28;20275;-57
2023/12/27 08:26:14;;;;;;;7.40;2.63;;;;;;;-141.84;100.00;100861.66;5050435;28;20244;-56
2023/12/27 08:28:42;;;;;;;4.50;2.70;;;;;;;-141.84;100.00;100596.16;5050272;28;20653;-57
2023/12/27 08:31:11;;;;;;;6.27;2.77;;;;;;;-141.84;100.00;100065.22;5050790;28;20289;-57
2023/12/27 08:33:40;;;;;;;8.03;2.47;;;;;;;-141.84;100.00;95820.25;5050038;28;20241;-55
2023/12/27 08:36:09;;;;;;;5.63;2.87;;;;;;;-141.84;99.24;88666.94;5041593;28;20304;-57
2023/12/27 08:38:38;;;;;;;6.00;2.97;;;;;;;-141.84;96.87;81790.53;5050374;28;20222;-58
2023/12/27 08:41:07;;;;;;;4.73;2.50;;;;;;;-141.84;94.47;72816.03;5049849;28;20225;-58
2023/12/27 08:43:37;;;;;;;5.63;2.60;;;;;;;-141.84;94.73;72552.38;5044999;28;20214;-57
2023/12/27 08:46:10;;;;;;;3.77;2.80;;;;;;;-141.84;94.42;72025.13;5050325;28;20186;-56
2023/12/27 08:48:39;;;;;;;5.87;3.17;;;;;;;-141.84;92.79;65966.75;5041839;28;20236;-52
2023/12/27 08:51:09;;;;;;;7.30;3.00;;;;;;;-141.84;91.65;60180.38;5047710;28;20221;-58
2023/12/27 08:53:38;;;;;;;4.07;2.60;;;;;;;-141.84;91.95;61231.81;5043996;28;20224;-57
2023/12/27 08:56:08;;;;;;;5.30;2.90;;;;;;;-141.84;91.67;60968.94;5047059;28;20249;-59
2023/12/27 08:58:38;;;;;;;5.30;2.57;;;;;;;-141.84;88.76;46275.03;5049821;28;20289;-56
2023/12/27 09:01:06;;;;;;;6.87;2.80;;;;;;;-141.84;87.96;39054.75;5049559;28;20216;-57
2023/12/27 09:03:35;;;;;;;5.17;2.83;;;;;;;-141.84;87.65;36094.41;5042996;28;20217;-56
2023/12/27 09:06:04;;;;;;;2.90;2.60;;;;;;;-141.84;87.85;37527.34;5049567;28;20312;-57
2023/12/27 09:08:36;;;;;;;7.00;2.83;;;;;;;-141.84;86.98;33374.91;5049385;28;20236;-57
2023/12/27 09:11:05;;;;;;;4.87;2.40;;;;;;;-141.84;85.86;27092.41;5049916;28;20225;-56
2023/12/27 09:13:33;;;;;;;6.67;2.87;;;;;;;-141.84;86.18;28475.19;5049094;28;20280;-54
2023/12/27 09:16:04;;;;;;;3.97;2.83;;;;;;;-141.84;86.72;30958.94;5049638;28;20247;-56
2023/12/27 09:18:32;;;;;;;5.80;3.20;;;;;;;-141.84;87.50;36935.31;5049455;28;20308;-58
2023/12/27 09:21:01;;;;;;;5.67;3.17;;;;;;;-141.84;86.20;31032.31;5041811;28;20245;-51
2023/12/27 09:23:30;;;;;;;5.20;3.00;;;;;;;-141.84;84.81;24826.81;5048941;28;20685;-52
2023/12/27 09:25:58;;;;;;;5.83;3.10;;;;;;;-141.84;84.45;24120.75;5049518;28;20278;-52
2023/12/27 09:28:27;;;;;;;6.20;3.83;;;;;;;-141.84;84.38;23616.19;5049818;28;20251;-55
2023/12/27 09:30:56;;;;;;;6.23;2.87;;;;;;;-141.84;84.21;23644.69;5049340;28;20218;-51
2023/12/27 09:33:26;;;;;;;7.90;3.30;;;;;;;-141.84;82.12;20476.44;5049099;28;20229;-54
2023/12/27 09:35:56;;;;;;;6.03;3.20;;;;;;;-141.84;80.46;19480.53;5049185;28;20221;-54
2023/12/27 09:38:24;;;;;;;7.43;3.37;;;;;;;-141.84;80.40;19370.81;5049213;28;20245;-54
2023/12/27 09:40:53;;;;;;;4.93;3.00;;;;;;;-141.84;79.61;19155.41;5049144;28;20228;-51
2023/12/27 09:43:24;;;;;;;3.50;3.00;;;;;;;-141.84;80.58;19411.44;5047241;28;20287;-50
2023/12/27 09:45:54;;;;;;;8.90;3.37;;;;;;;-141.84;79.70;19192.00;5049098;28;20221;-53
2023/12/27 09:48:25;;;;;;;8.90;3.20;;;;;;;-141.84;79.75;19208.25;5047254;28;20225;-55
2023/12/27 09:50:58;;;;;;;10.03;3.90;;;;;;;-141.84;79.06;19108.69;5048996;28;20217;-56
2023/12/27 09:53:27;;;;;;;5.63;3.20;;;;;;;-141.84;78.69;19011.13;5048887;28;20248;-57
2023/12/27 09:55:56;;;;;;;3.53;2.43;;;;;;;-141.84;78.15;18960.34;5049111;28;20309;-57
2023/12/27 09:58:28;;;;;;;5.67;2.97;;;;;;;-141.84;76.86;18763.25;5049508;28;20292;-58
2023/12/27 10:01:01;;;;;;;5.40;2.90;;;;;;;-141.84;75.70;18671.81;5048984;28;20217;-56
2023/12/27 10:03:35;;;;;;;5.53;3.03;;;;;;;-141.84;76.21;18710.44;5049023;28;20694;-59
2023/12/27 10:06:17;;;;;;;3.93;2.60;;;;;;;-141.84;76.05;18716.53;5048806;28;20224;-59
2023/12/27 10:08:46;;;;;;;5.40;2.30;;;;;;;-141.84;76.17;18720.59;5042162;28;20232;-55
2023/12/27 10:11:16;;;;;;;5.60;2.57;;;;;;;-141.84;75.24;18690.09;5049079;28;20291;-56
2023/12/27 10:13:48;;;;;;;5.43;2.50;;;;;;;-141.84;74.68;18625.09;5047768;28;20582;-61
2023/12/27 10:16:17;;;;;;;3.97;2.13;;;;;;;-141.84;72.54;18558.03;5048679;28;20259;-56
2023/12/27 10:18:46;;;;;;;5.30;1.90;;;;;;;-141.84;67.43;18501.16;5049187;28;20228;-56
2023/12/27 10:21:18;;;;;;;7.00;1.90;;;;;;;-141.84;67.24;18507.25;5041129;28;20229;-56
2023/12/27 10:23:47;;;;;;;6.23;2.30;;;;;;;-141.84;67.16;18505.22;5048725;28;21639;-57
2023/12/27 10:26:16;;;;;;;7.07;2.33;;;;;;;-141.84;67.19;18539.75;5052394;28;20282;-57
2023/12/27 10:28:45;;;;;;;4.57;1.83;;;;;;;-141.84;66.72;18505.22;5052936;28;20312;-55
2023/12/27 10:31:14;;;;;;;4.20;1.70;;;;;;;-141.84;67.57;18505.22;5052959;28;20233;-54
2023/12/27 10:33:46;;;;;;;4.33;1.90;;;;;;;-141.84;66.32;18501.16;5051677;28;20273;-56
2023/12/27 10:36:17;;;;;;;4.67;2.23;;;;;;;-141.84;65.53;18537.72;5052353;28;20237;-57
2023/12/27 10:38:46;;;;;;;4.27;2.00;;;;;;;-141.84;66.82;18533.66;5052459;28;20244;-58
2023/12/27 10:41:16;;;;;;;5.43;2.20;;;;;;;-141.84;67.61;18547.88;5052789;28;20229;-59
2023/12/27 10:43:46;;;;;;;5.93;2.27;;;;;;;-141.84;65.20;18545.84;5051267;28;20198;-58
2023/12/27 10:46:15;;;;;;;3.43;2.23;;;;;;;-141.84;65.65;18553.97;5052819;28;20209;-57
2023/12/27 10:48:48;;;;;;;3.57;2.30;;;;;;;-141.84;64.71;18558.03;5052587;28;20237;-55
2023/12/27 10:51:21;;;;;;;4.03;2.00;;;;;;;-141.84;63.93;18582.44;5052293;28;20255;-64
2023/12/27 10:53:53;;;;;;;4.53;2.20;;;;;;;-141.84;65.07;18545.84;5045459;28;20221;-62
2023/12/27 10:56:24;;;;;;;3.17;2.00;;;;;;;-141.84;63.89;18564.13;5047796;28;21239;-60
2023/12/27 10:58:53;;;;;;;3.33;2.10;;;;;;;-141.84;63.86;18562.09;5045659;28;20233;-60
2023/12/27 11:01:23;;;;;;;7.30;2.80;;;;;;;-141.84;64.15;18560.06;5039417;28;20205;-60
2023/12/27 11:03:54;;;;;;;5.20;2.50;;;;;;;-141.84;65.59;18564.13;5048721;28;20271;-59
2023/12/27 11:06:25;;;;;;;4.07;2.20;;;;;;;-141.84;65.04;18574.28;5051685;28;20225;-62
2023/12/27 11:08:55;;;;;;;4.33;2.40;;;;;;;-141.84;65.26;18576.31;5051889;28;20223;-62
2023/12/27 11:11:26;;;;;;;12.10;5.23;;;;;;;-141.84;65.34;18574.28;5051518;28;20256;-62
2023/12/27 11:13:55;;;;;;;5.17;2.30;;;;;;;-141.84;65.17;18549.91;5051794;28;20233;-62
2023/12/27 11:16:25;;;;;;;6.60;2.20;;;;;;;-141.84;64.33;18558.03;5047795;28;20624;-62
2023/12/27 11:18:55;;;;;;;7.37;2.23;;;;;;;-141.84;65.14;18558.03;5051066;28;20241;-62
2023/12/27 11:21:26;;;;;;;3.93;2.33;;;;;;;-141.84;65.42;18576.31;5051752;28;20253;-62